Time;durP1;ratioP1;P1;durP2;ratioP2;P2;SDS_P1;SDS_P2;PMS_P1;PMS_P2;Temp;Humidity;BMP_temperature;BMP_pressure;BME280_temperature;BME280_humidity;BME280_pressure;Samples;Min_cycle;Max_cycle;Signal;HPM_P1;HPM_P2
2022/08/31 00:04:40;;;;;;;;;;;;;;;21.93;29.39;97781.41;5074221;28;1070;-82
2022/08/31 00:07:06;;;;;;;;;;;;;;;21.91;29.46;97775.41;5081801;28;1100;-82
2022/08/31 00:09:31;;;;;;;;;;;;;;;21.93;29.12;97776.53;5094122;28;1918;-82
2022/08/31 00:11:57;;;;;;;;;;;;;;;21.82;29.44;97765.56;5094665;28;956;-82
2022/08/31 00:14:23;;;;;;;;;;;;;;;21.89;29.44;97769.41;5094754;28;967;-82
2022/08/31 00:16:48;;;;;;;;;;;;;;;21.96;29.20;97780.50;5077471;28;1218;-82
2022/08/31 00:19:14;;;;;;;;;;;;;;;21.98;29.15;97783.69;5094546;28;996;-83
2022/08/31 00:21:39;;;;;;;;;;;;;;;21.79;29.51;97783.44;5094452;28;1105;-82
2022/08/31 00:24:04;;;;;;;;;;;;;;;21.63;29.78;97780.69;5094480;28;857;-82
2022/08/31 00:26:30;;;;;;;;;;;;;;;22.05;29.14;97786.28;5094748;28;876;-82
2022/08/31 00:28:55;;;;;;;;;;;;;;;22.08;29.09;97779.72;5094533;28;1017;-83
2022/08/31 00:31:21;;;;;;;;;;;;;;;21.89;29.48;97786.41;5094785;28;1965;-83
2022/08/31 00:33:51;;;;;;;;;;;;;;;22.05;29.16;97794.78;5098432;28;1054;-82
2022/08/31 00:36:17;;;;;;;;;;;;;;;21.77;29.88;97794.44;5098467;28;897;-82
2022/08/31 00:38:47;;;;;;;;;;;;;;;21.76;29.60;97790.03;5082193;28;892;-83
2022/08/31 00:41:12;;;;;;;;;;;;;;;21.79;29.83;97789.09;5098069;28;1157;-82
2022/08/31 00:43:39;;;;;;;;;;;;;;;21.73;29.83;97784.47;5081211;28;949;-82
2022/08/31 00:46:05;;;;;;;;;;;;;;;21.94;29.61;97783.00;5097934;28;927;-82
2022/08/31 00:48:31;;;;;;;;;;;;;;;21.77;30.09;97779.47;5077791;28;1348;-82
2022/08/31 00:50:56;;;;;;;;;;;;;;;21.62;29.99;97787.63;5061247;28;1910;-83
2022/08/31 00:53:22;;;;;;;;;;;;;;;22.01;29.50;97791.25;5060962;28;1082;-83
2022/08/31 00:55:47;;;;;;;;;;;;;;;21.88;29.61;97790.47;5060706;28;1297;-82
2022/08/31 00:58:13;;;;;;;;;;;;;;;21.61;29.86;97782.41;5064178;28;1114;-83
2022/08/31 01:00:39;;;;;;;;;;;;;;;21.67;29.90;97775.72;5057429;28;1026;-82
2022/08/31 01:03:04;;;;;;;;;;;;;;;21.90;29.63;97782.31;5056990;28;1165;-83
2022/08/31 01:05:30;;;;;;;;;;;;;;;21.95;29.31;97773.25;5057208;28;1043;-83
2022/08/31 01:07:55;;;;;;;;;;;;;;;21.92;29.34;97774.19;5037347;28;1193;-83
2022/08/31 01:10:22;;;;;;;;;;;;;;;22.01;29.42;97771.44;4997827;28;1894;-83
2022/08/31 01:12:48;;;;;;;;;;;;;;;21.83;29.65;97772.78;4997993;28;1401;-82
2022/08/31 01:15:13;;;;;;;;;;;;;;;22.02;29.02;97773.00;4981638;28;1796;-81
2022/08/31 01:17:39;;;;;;;;;;;;;;;21.81;29.38;97769.63;4998199;28;961;-83
2022/08/31 01:20:14;;;;;;;;;;;;;;;21.84;29.51;97762.25;4983310;28;944;-82
2022/08/31 01:23:00;;;;;;;;;;;;;;;21.96;29.13;97755.00;4978377;28;1139;-83
2022/08/31 01:25:25;;;;;;;;;;;;;;;22.00;28.99;97761.34;4940141;29;1007;-82
2022/08/31 01:27:50;;;;;;;;;;;;;;;21.82;29.39;97762.72;4923404;29;967;-82
2022/08/31 01:30:20;;;;;;;;;;;;;;;21.88;29.23;97767.81;4939284;29;1966;-82
2022/08/31 01:32:45;;;;;;;;;;;;;;;21.75;29.59;97760.09;4923603;29;1427;-82
2022/08/31 01:35:11;;;;;;;;;;;;;;;21.77;29.49;97757.63;4958957;29;1121;-82
2022/08/31 01:37:36;;;;;;;;;;;;;;;21.80;29.32;97762.34;4970164;28;982;-82
2022/08/31 01:40:02;;;;;;;;;;;;;;;21.84;29.27;97762.25;4959059;28;1978;-82
2022/08/31 01:42:29;;;;;;;;;;;;;;;21.74;29.48;97761.34;4940291;28;1212;-82
2022/08/31 01:44:54;;;;;;;;;;;;;;;21.90;29.21;97759.66;4985542;28;959;-82
2022/08/31 01:47:20;;;;;;;;;;;;;;;21.92;29.16;97765.69;4997694;28;947;-82
2022/08/31 01:49:45;;;;;;;;;;;;;;;21.79;29.34;97769.28;5013407;28;1966;-82
2022/08/31 01:52:11;;;;;;;;;;;;;;;21.69;29.71;97770.41;5013783;28;1179;-82
2022/08/31 01:54:38;;;;;;;;;;;;;;;21.89;29.23;97770.19;5013778;28;1273;-82
2022/08/31 01:57:05;;;;;;;;;;;;;;;21.89;29.35;97769.41;5013696;28;1127;-82
2022/08/31 01:59:58;;;;;;;;;;;;;;;21.90;29.47;97770.97;4997048;28;1164;-82
2022/08/31 02:02:39;;;;;;;;;;;;;;;21.81;29.40;97765.97;5001967;28;889;-82
2022/08/31 02:05:05;;;;;;;;;;;;;;;21.81;29.25;97772.47;5018533;28;1672;-83
2022/08/31 02:07:31;;;;;;;;;;;;;;;21.69;29.78;97761.91;5016801;28;1174;-82
2022/08/31 02:09:57;;;;;;;;;;;;;;;21.69;29.58;97764.72;5000291;28;1993;-82
2022/08/31 02:12:23;;;;;;;;;;;;;;;21.99;29.12;97752.06;5000229;28;983;-83
2022/08/31 02:14:48;;;;;;;;;;;;;;;21.91;29.27;97750.69;5016289;28;964;-82
2022/08/31 02:17:14;;;;;;;;;;;;;;;21.84;29.30;97757.38;4983951;28;1084;-83
2022/08/31 02:19:40;;;;;;;;;;;;;;;21.81;29.27;97754.66;4983598;28;1463;-83
2022/08/31 02:22:05;;;;;;;;;;;;;;;21.83;29.16;97750.13;4957645;28;1150;-82
2022/08/31 02:24:31;;;;;;;;;;;;;;;21.72;29.47;97755.34;4919529;29;1672;-83
2022/08/31 02:26:56;;;;;;;;;;;;;;;21.75;29.34;97757.25;4919664;29;1240;-83
2022/08/31 02:29:23;;;;;;;;;;;;;;;21.65;29.47;97755.56;4904177;29;1910;-83
2022/08/31 02:31:49;;;;;;;;;;;;;;;21.72;29.78;97763.06;4938344;29;1078;-82
2022/08/31 02:34:16;;;;;;;;;;;;;;;22.08;28.93;97759.88;4938507;29;1072;-83
2022/08/31 02:36:42;;;;;;;;;;;;;;;21.78;29.22;97759.19;4945997;28;1386;-83
2022/08/31 02:39:07;;;;;;;;;;;;;;;21.70;29.65;97757.03;5009853;28;1123;-82
2022/08/31 02:41:33;;;;;;;;;;;;;;;21.66;29.65;97757.16;5019338;28;1096;-82
2022/08/31 02:43:59;;;;;;;;;;;;;;;21.78;29.54;97741.41;5035389;28;972;-82
2022/08/31 02:46:24;;;;;;;;;;;;;;;21.61;29.71;97754.88;5002651;28;1155;-82
2022/08/31 02:49:13;;;;;;;;;;;;;;;21.65;29.76;97747.06;5034861;28;1910;-83
2022/08/31 02:51:39;;;;;;;;;;;;;;;21.61;29.74;97740.72;5035430;28;1077;-82
2022/08/31 02:54:05;;;;;;;;;;;;;;;21.79;29.41;97738.13;4992029;28;1255;-82
2022/08/31 02:56:30;;;;;;;;;;;;;;;21.57;29.86;97743.66;4958514;28;965;-83
2022/08/31 02:58:58;;;;;;;;;;;;;;;21.71;29.98;97733.94;4989158;28;1129;-82
2022/08/31 03:01:25;;;;;;;;;;;;;;;21.85;29.36;97733.47;5032383;28;1099;-82
2022/08/31 03:03:51;;;;;;;;;;;;;;;21.96;29.46;97735.97;5051400;28;1494;-82
2022/08/31 03:06:16;;;;;;;;;;;;;;;22.00;29.43;97735.84;5054667;28;1202;-83
2022/08/31 03:08:42;;;;;;;;;;;;;;;21.86;29.48;97731.44;5037854;28;1313;-83
2022/08/31 03:11:08;;;;;;;;;;;;;;;21.81;29.57;97727.16;5014453;28;1930;-82
2022/08/31 03:13:34;;;;;;;;;;;;;;;21.87;29.57;97726.59;4959552;28;1414;-82
2022/08/31 03:16:00;;;;;;;;;;;;;;;21.71;29.57;97731.13;4935108;28;1345;-82
2022/08/31 03:18:26;;;;;;;;;;;;;;;21.83;29.81;97733.16;4966965;28;1377;-82
2022/08/31 03:20:51;;;;;;;;;;;;;;;21.87;29.65;97730.22;4972244;28;1273;-82
2022/08/31 03:23:16;;;;;;;;;;;;;;;21.82;29.36;97739.28;4965851;28;1325;-83
2022/08/31 03:25:42;;;;;;;;;;;;;;;21.89;29.34;97732.56;4935708;28;1365;-82
2022/08/31 03:28:08;;;;;;;;;;;;;;;21.70;29.78;97729.50;4937320;29;1451;-82
2022/08/31 03:30:36;;;;;;;;;;;;;;;21.84;29.60;97736.75;4953469;28;1902;-83
2022/08/31 03:33:05;;;;;;;;;;;;;;;21.75;29.49;97745.94;4953253;28;1044;-82
2022/08/31 03:35:33;;;;;;;;;;;;;;;21.73;29.54;97756.13;4983657;28;1151;-81
2022/08/31 03:38:02;;;;;;;;;;;;;;;21.78;29.59;97758.41;4976319;28;1122;-82
2022/08/31 03:40:28;;;;;;;;;;;;;;;21.74;29.37;97743.56;4975946;28;1441;-83
2022/08/31 03:42:56;;;;;;;;;;;;;;;21.91;29.01;97744.25;4937284;28;1834;-82
2022/08/31 03:45:22;;;;;;;;;;;;;;;21.76;29.76;97750.38;4953059;28;1361;-82
2022/08/31 03:47:48;;;;;;;;;;;;;;;21.75;29.49;97748.75;4928357;28;1215;-82
2022/08/31 03:50:14;;;;;;;;;;;;;;;21.62;29.77;97750.81;4969855;28;1914;-83
2022/08/31 03:52:52;;;;;;;;;;;;;;;21.95;29.31;97739.25;5034382;28;2048;-83
2022/08/31 03:55:18;;;;;;;;;;;;;;;21.83;29.38;97755.81;5034553;28;1110;-82
2022/08/31 03:57:44;;;;;;;;;;;;;;;21.65;30.01;97744.22;5034523;28;1088;-82
2022/08/31 04:00:11;;;;;;;;;;;;;;;21.67;30.12;97752.28;5034567;28;1166;-82
2022/08/31 04:02:39;;;;;;;;;;;;;;;21.85;29.87;97729.84;5033836;28;1699;-81
2022/08/31 04:05:28;;;;;;;;;;;;;;;21.82;29.63;97733.59;4931034;29;1330;-83
2022/08/31 04:08:12;;;;;;;;;;;;;;;21.70;29.93;97742.88;4921815;29;929;-82
2022/08/31 04:10:44;;;;;;;;;;;;;;;21.71;30.15;97739.59;4922444;29;1984;-82
2022/08/31 04:13:29;;;;;;;;;;;;;;;21.73;29.88;97739.94;4883142;29;1506;-81
2022/08/31 04:16:15;;;;;;;;;;;;;;;21.85;29.71;97753.31;4865832;29;1042;-82
2022/08/31 04:18:59;;;;;;;;;;;;;;;21.58;29.96;97747.28;4883672;29;1450;-82
2022/08/31 04:21:25;;;;;;;;;;;;;;;21.72;29.92;97752.53;4883013;29;1714;-82
2022/08/31 04:23:51;;;;;;;;;;;;;;;21.74;30.09;97747.19;4884270;29;1264;-82
2022/08/31 04:26:17;;;;;;;;;;;;;;;21.69;29.95;97753.41;4884297;29;1114;-82
2022/08/31 04:28:43;;;;;;;;;;;;;;;21.97;29.84;97753.78;4884024;29;1300;-82
2022/08/31 04:31:09;;;;;;;;;;;;;;;21.70;30.05;97757.81;4883027;29;1915;-80
2022/08/31 04:33:36;;;;;;;;;;;;;;;21.70;30.51;97757.03;4893049;29;1074;-81
2022/08/31 04:36:04;;;;;;;;;;;;;;;21.72;30.07;97763.84;4929821;29;1199;-80
2022/08/31 04:38:30;;;;;;;;;;;;;;;21.89;29.76;97766.56;4975493;28;976;-81
2022/08/31 04:40:55;;;;;;;;;;;;;;;21.88;30.12;97756.50;4962080;28;1526;-80
2022/08/31 04:43:21;;;;;;;;;;;;;;;21.77;30.16;97760.44;5010506;28;1631;-80
2022/08/31 04:45:46;;;;;;;;;;;;;;;21.74;30.30;97752.84;4964470;28;1713;-80
2022/08/31 04:48:13;;;;;;;;;;;;;;;21.77;30.19;97749.13;4975111;28;1737;-81
2022/08/31 04:50:39;;;;;;;;;;;;;;;21.81;29.90;97751.81;4943177;29;1984;-81
2022/08/31 04:53:06;;;;;;;;;;;;;;;22.11;30.77;97736.31;4967047;28;1191;-80
2022/08/31 04:55:32;;;;;;;;;;;;;;;22.15;31.46;97742.66;4978648;28;1164;-80
2022/08/31 04:57:57;;;;;;;;;;;;;;;22.19;31.92;97746.19;4998051;28;1212;-80
2022/08/31 05:00:23;;;;;;;;;;;;;;;22.19;31.22;97737.69;4965431;28;1945;-80
2022/08/31 05:03:15;;;;;;;;;;;;;;;22.04;31.39;97739.38;4988479;28;1174;-80
2022/08/31 05:05:41;;;;;;;;;;;;;;;21.91;31.34;97732.91;4994581;28;1194;-80
2022/08/31 05:08:06;;;;;;;;;;;;;;;21.99;30.88;97739.94;4958893;28;1210;-80
2022/08/31 05:10:32;;;;;;;;;;;;;;;21.90;30.90;97743.44;4959060;28;1960;-80
2022/08/31 05:12:58;;;;;;;;;;;;;;;21.90;30.82;97737.00;4996299;28;1003;-80
2022/08/31 05:15:24;;;;;;;;;;;;;;;22.02;30.72;97750.34;5013930;28;1234;-80
2022/08/31 05:17:49;;;;;;;;;;;;;;;21.98;30.65;97744.81;5013048;28;971;-80
2022/08/31 05:20:15;;;;;;;;;;;;;;;21.91;30.52;97755.56;5014858;28;1267;-80
2022/08/31 05:22:40;;;;;;;;;;;;;;;21.90;30.61;97760.44;5050359;28;1138;-81
2022/08/31 05:25:06;;;;;;;;;;;;;;;21.92;30.62;97745.84;5033773;28;1087;-82
2022/08/31 05:27:32;;;;;;;;;;;;;;;21.82;30.89;97754.22;5016746;28;1004;-80
2022/08/31 05:29:58;;;;;;;;;;;;;;;21.89;30.50;97746.75;5054870;28;1906;-81
2022/08/31 05:32:38;;;;;;;;;;;;;;;21.67;30.91;97752.28;5071221;28;903;-82
2022/08/31 05:35:04;;;;;;;;;;;;;;;21.81;30.51;97741.31;5075333;28;1335;-81
2022/08/31 05:37:30;;;;;;;;;;;;;;;21.92;30.34;97740.97;5033540;28;1191;-81
2022/08/31 05:39:56;;;;;;;;;;;;;;;21.90;30.42;97737.00;5033610;28;1133;-81
2022/08/31 05:42:21;;;;;;;;;;;;;;;22.01;30.39;97734.59;5036609;28;1107;-81
2022/08/31 05:44:48;;;;;;;;;;;;;;;21.88;30.13;97734.63;5055042;28;1924;-80
2022/08/31 05:47:14;;;;;;;;;;;;;;;21.92;30.30;97740.19;5035804;28;1525;-81
2022/08/31 05:49:41;;;;;;;;;;;;;;;21.95;29.96;97745.72;5053103;28;1910;-81
2022/08/31 05:52:08;;;;;;;;;;;;;;;21.98;30.11;97744.81;5036458;28;1192;-81
2022/08/31 05:54:34;;;;;;;;;;;;;;;21.76;30.40;97744.72;5058894;28;1556;-80
2022/08/31 05:56:59;;;;;;;;;;;;;;;21.97;30.04;97748.91;5038922;28;1514;-81
2022/08/31 05:59:25;;;;;;;;;;;;;;;22.11;30.02;97739.16;5055391;28;1455;-81
2022/08/31 06:01:50;;;;;;;;;;;;;;;21.76;30.31;97755.22;5022738;28;1362;-81
2022/08/31 06:04:23;;;;;;;;;;;;;;;22.08;29.84;97748.56;5029582;28;1544;-81
2022/08/31 06:06:49;;;;;;;;;;;;;;;21.96;30.09;97747.28;5069908;28;1582;-81
2022/08/31 06:09:17;;;;;;;;;;;;;;;21.98;29.86;97750.47;5060238;28;1961;-81
2022/08/31 06:11:43;;;;;;;;;;;;;;;21.95;29.93;97761.91;5072951;28;1182;-81
2022/08/31 06:14:13;;;;;;;;;;;;;;;21.90;30.15;97773.81;5065482;28;1551;-81
2022/08/31 06:16:41;;;;;;;;;;;;;;;22.03;29.86;97763.28;5016324;28;1201;-81
2022/08/31 06:19:06;;;;;;;;;;;;;;;21.81;30.25;97763.97;5035869;28;1113;-82
2022/08/31 06:21:34;;;;;;;;;;;;;;;22.01;29.96;97754.44;5035934;28;1163;-81
2022/08/31 06:24:00;;;;;;;;;;;;;;;21.76;30.34;97761.69;5018451;28;1550;-81
2022/08/31 06:26:27;;;;;;;;;;;;;;;21.97;30.09;97771.56;5019282;28;1398;-81
2022/08/31 06:28:53;;;;;;;;;;;;;;;21.97;30.27;97771.56;5018723;28;1120;-82
2022/08/31 06:31:22;;;;;;;;;;;;;;;21.83;30.48;97772.78;4979221;28;1981;-82
2022/08/31 06:33:48;;;;;;;;;;;;;;;21.74;30.55;97775.50;4995497;28;1507;-81
2022/08/31 06:36:18;;;;;;;;;;;;;;;21.92;30.20;97771.34;4979951;28;1069;-81
2022/08/31 06:39:11;;;;;;;;;;;;;;;22.02;30.08;97770.19;5019063;28;1135;-81
2022/08/31 06:42:08;;;;;;;;;;;;;;;21.94;29.92;97763.16;4983530;28;1363;-81
2022/08/31 06:44:52;;;;;;;;;;;;;;;21.82;30.49;97764.75;4996054;28;1089;-81
2022/08/31 06:47:20;;;;;;;;;;;;;;;21.75;30.38;97762.91;4979986;28;1266;-81
2022/08/31 06:49:46;;;;;;;;;;;;;;;21.94;30.46;97749.00;4967012;28;1902;-79
2022/08/31 06:52:13;;;;;;;;;;;;;;;21.71;30.60;97747.28;4977155;28;1388;-81
2022/08/31 06:54:40;;;;;;;;;;;;;;;21.87;30.74;97740.75;4976446;28;1221;-80
2022/08/31 06:57:37;;;;;;;;;;;;;;;21.84;30.70;97751.72;5015432;28;1372;-81
2022/08/31 07:00:21;;;;;;;;;;;;;;;21.83;30.79;97755.81;5014750;28;1543;-81
2022/08/31 07:03:22;;;;;;;;;;;;;;;22.04;30.37;97764.88;4958778;28;1527;-81
2022/08/31 07:05:49;;;;;;;;;;;;;;;22.00;30.31;97758.53;4973178;28;1203;-81
2022/08/31 07:08:15;;;;;;;;;;;;;;;22.08;30.52;97765.56;4956832;28;1205;-82
2022/08/31 07:10:42;;;;;;;;;;;;;;;22.08;30.29;97760.69;4972874;28;1906;-81
2022/08/31 07:13:07;;;;;;;;;;;;;;;21.84;30.87;97768.72;4956052;29;1615;-81
2022/08/31 07:15:32;;;;;;;;;;;;;;;21.79;30.88;97774.94;4973101;28;1175;-81
2022/08/31 07:17:58;;;;;;;;;;;;;;;21.92;30.54;97779.84;4976019;28;1350;-81
2022/08/31 07:20:24;;;;;;;;;;;;;;;22.07;30.26;97763.94;4979216;28;1312;-81
2022/08/31 07:22:49;;;;;;;;;;;;;;;22.02;30.12;97775.84;5011611;28;1067;-81
2022/08/31 07:25:41;;;;;;;;;;;;;;;22.10;29.83;97763.88;4924100;29;1019;-81
2022/08/31 07:28:06;;;;;;;;;;;;;;;21.90;30.12;97768.94;4934704;29;1183;-80
2022/08/31 07:30:38;;;;;;;;;;;;;;;21.98;30.05;97755.34;4953436;28;1899;-81
2022/08/31 07:33:05;;;;;;;;;;;;;;;22.17;29.59;97757.16;4948536;28;1481;-80
2022/08/31 07:35:31;;;;;;;;;;;;;;;21.95;29.79;97767.59;4991549;28;1738;-81
2022/08/31 07:43:42;;;;;;;;;;;;;;;21.82;30.17;97764.75;5014577;28;1039;-81
2022/08/31 07:46:08;;;;;;;;;;;;;;;21.76;30.36;97760.88;4978161;28;1301;-81
2022/08/31 07:48:35;;;;;;;;;;;;;;;21.92;29.87;97762.84;4994745;28;1327;-81
2022/08/31 07:51:22;;;;;;;;;;;;;;;21.96;29.99;97775.63;4995243;28;1906;-81
2022/08/31 07:54:06;;;;;;;;;;;;;;;21.89;30.02;97769.41;4982705;28;932;-81
2022/08/31 07:56:40;;;;;;;;;;;;;;;22.16;29.41;97766.91;4955157;28;1405;-81
2022/08/31 07:59:11;;;;;;;;;;;;;;;21.89;29.91;97763.75;4950883;28;1124;-80
2022/08/31 08:01:40;;;;;;;;;;;;;;;21.79;29.99;97746.63;4984810;28;1408;-81
2022/08/31 08:04:06;;;;;;;;;;;;;;;22.06;29.90;97751.03;5037354;28;1441;-80
2022/08/31 08:06:54;;;;;;;;;;;;;;;22.01;29.96;97731.78;5006721;28;1522;-81
2022/08/31 08:09:50;;;;;;;;;;;;;;;21.72;30.37;97732.69;4974884;28;1997;-81
2022/08/31 08:12:41;;;;;;;;;;;;;;;22.10;29.81;97718.53;4955696;28;1023;-81
2022/08/31 08:15:13;;;;;;;;;;;;;;;22.04;29.73;97725.22;4954327;28;1486;-81
2022/08/31 08:17:52;;;;;;;;;;;;;;;22.05;29.76;97723.94;4986857;28;1222;-81
2022/08/31 08:20:23;;;;;;;;;;;;;;;21.97;30.16;97733.94;4962886;28;1145;-81
2022/08/31 08:22:49;;;;;;;;;;;;;;;22.13;29.76;97728.19;4994497;28;1076;-81
2022/08/31 08:25:33;;;;;;;;;;;;;;;22.09;29.90;97733.94;4979508;28;1564;-81
2022/08/31 08:28:05;;;;;;;;;;;;;;;22.18;29.84;97735.31;5006853;28;1191;-80
2022/08/31 08:30:34;;;;;;;;;;;;;;;22.14;29.63;97745.97;5033904;28;2030;-81
2022/08/31 08:33:02;;;;;;;;;;;;;;;22.17;29.57;97743.00;5029020;28;1478;-81
2022/08/31 08:35:29;;;;;;;;;;;;;;;22.19;29.67;97748.22;5019058;28;1613;-80
2022/08/31 08:37:56;;;;;;;;;;;;;;;22.16;29.60;97749.91;5010739;28;1077;-81
2022/08/31 08:40:28;;;;;;;;;;;;;;;22.15;29.88;97764.56;5017395;28;1109;-81
2022/08/31 08:42:54;;;;;;;;;;;;;;;21.98;30.13;97755.34;5020072;28;1502;-81
2022/08/31 08:45:19;;;;;;;;;;;;;;;22.00;30.00;97753.63;5000225;28;1107;-81
2022/08/31 08:47:48;;;;;;;;;;;;;;;21.96;29.99;97767.13;5010415;28;1181;-79
2022/08/31 08:50:17;;;;;;;;;;;;;;;22.00;30.21;97764.97;5007817;28;1969;-81
2022/08/31 08:52:43;;;;;;;;;;;;;;;22.16;29.68;97755.59;5017871;28;1360;-81
2022/08/31 08:55:11;;;;;;;;;;;;;;;21.92;30.05;97760.00;5016995;28;1424;-82
2022/08/31 08:57:38;;;;;;;;;;;;;;;22.07;29.78;97753.44;5017175;28;1172;-81
2022/08/31 09:00:08;;;;;;;;;;;;;;;21.96;30.02;97755.00;5034078;28;1166;-81
2022/08/31 09:02:56;;;;;;;;;;;;;;;22.02;30.34;97745.50;5033292;28;1511;-79
2022/08/31 09:05:49;;;;;;;;;;;;;;;21.95;30.41;97740.03;5014288;28;1344;-82
2022/08/31 09:08:41;;;;;;;;;;;;;;;21.84;30.53;97739.59;5032467;28;1531;-81
2022/08/31 09:11:06;;;;;;;;;;;;;;;22.05;30.24;97732.44;5000725;28;1910;-80
2022/08/31 09:13:38;;;;;;;;;;;;;;;21.91;30.65;97732.91;5000061;28;1619;-81
2022/08/31 09:16:20;;;;;;;;;;;;;;;22.11;30.03;97719.31;5031466;28;1531;-81
2022/08/31 09:18:51;;;;;;;;;;;;;;;22.03;30.20;97732.13;5044285;28;1248;-81
2022/08/31 09:21:20;;;;;;;;;;;;;;;22.26;29.83;97730.97;5063481;28;1042;-81
2022/08/31 09:23:50;;;;;;;;;;;;;;;22.11;30.07;97725.00;5080139;28;1134;-81
2022/08/31 09:26:19;;;;;;;;;;;;;;;22.00;30.21;97718.84;5063357;28;1481;-82
2022/08/31 09:29:19;;;;;;;;;;;;;;;22.23;30.01;97721.38;5043338;28;973;-81
2022/08/31 09:31:45;;;;;;;;;;;;;;;22.34;29.70;97721.00;5038990;28;1577;-81
2022/08/31 09:34:42;;;;;;;;;;;;;;;22.26;29.82;97726.09;5059344;28;1013;-80
2022/08/31 09:37:32;;;;;;;;;;;;;;;21.98;30.31;97718.53;5016878;28;1012;-81
2022/08/31 09:39:57;;;;;;;;;;;;;;;22.06;30.15;97722.69;4977413;28;1164;-81
2022/08/31 09:42:30;;;;;;;;;;;;;;;22.15;30.21;97725.66;4960726;28;1497;-81
2022/08/31 09:44:59;;;;;;;;;;;;;;;22.15;29.83;97713.53;4961853;28;994;-81
2022/08/31 09:47:47;;;;;;;;;;;;;;;22.07;30.17;97712.94;4961697;28;912;-81
2022/08/31 09:50:30;;;;;;;;;;;;;;;22.14;30.08;97707.09;4944816;28;1993;-81
2022/08/31 09:56:13;;;;;;;;;;;;;;;22.07;30.01;97710.13;4963657;28;1021;-81
2022/08/31 09:58:42;;;;;;;;;;;;;;;21.93;30.58;97704.94;4977052;28;991;-81
2022/08/31 10:01:13;;;;;;;;;;;;;;;21.99;30.06;97700.28;4941490;29;1578;-81
2022/08/31 10:03:43;;;;;;;;;;;;;;;21.99;30.04;97700.28;4957481;28;940;-81
2022/08/31 10:06:40;;;;;;;;;;;;;;;22.29;29.94;97696.84;4971967;28;976;-81
2022/08/31 10:09:08;;;;;;;;;;;;;;;22.31;29.65;97699.22;4974868;28;1649;-81
2022/08/31 10:11:34;;;;;;;;;;;;;;;22.10;30.29;97700.72;4976626;28;1910;-81
2022/08/31 10:14:03;;;;;;;;;;;;;;;22.38;29.89;97703.84;4976947;28;1112;-82
2022/08/31 10:16:34;;;;;;;;;;;;;;;22.17;29.87;97703.31;4977877;28;2165;-81
2022/08/31 10:19:02;;;;;;;;;;;;;;;22.16;30.40;97693.25;4999141;28;1500;-81
2022/08/31 10:21:50;;;;;;;;;;;;;;;22.11;30.29;97696.66;5025939;28;1523;-80
2022/08/31 10:24:27;;;;;;;;;;;;;;;22.07;30.24;97698.78;5016102;28;1127;-80
2022/08/31 10:27:16;;;;;;;;;;;;;;;22.05;30.39;97687.13;5015611;28;1656;-81
2022/08/31 10:29:55;;;;;;;;;;;;;;;22.22;30.09;97697.09;4982940;28;1910;-80
2022/08/31 10:32:32;;;;;;;;;;;;;;;22.22;30.10;97691.41;4962647;28;1685;-81
2022/08/31 10:35:04;;;;;;;;;;;;;;;22.06;30.33;97689.50;4995921;28;962;-81
2022/08/31 10:37:48;;;;;;;;;;;;;;;22.10;30.38;97687.38;4980692;28;928;-81
2022/08/31 10:40:17;;;;;;;;;;;;;;;22.29;29.83;97685.53;4994899;28;1656;-81
2022/08/31 10:42:58;;;;;;;;;;;;;;;22.19;30.00;97675.34;4995764;28;1058;-80
2022/08/31 10:45:24;;;;;;;;;;;;;;;22.14;30.23;97675.91;4988779;28;1532;-80
2022/08/31 10:47:51;;;;;;;;;;;;;;;22.42;29.65;97676.97;4991133;28;1298;-80
2022/08/31 10:50:26;;;;;;;;;;;;;;;22.18;29.96;97679.44;4991336;28;1944;-80
2022/08/31 10:53:04;;;;;;;;;;;;;;;22.08;30.42;97683.38;4975503;28;1679;-80
2022/08/31 10:55:36;;;;;;;;;;;;;;;22.20;30.06;97676.91;4975322;28;1704;-80
2022/08/31 10:58:04;;;;;;;;;;;;;;;22.10;30.31;97684.53;4996135;28;1549;-80
2022/08/31 11:00:44;;;;;;;;;;;;;;;22.02;30.45;97683.16;5013272;28;1722;-81
2022/08/31 11:03:46;;;;;;;;;;;;;;;22.22;30.00;97685.75;5015316;28;1106;-80
2022/08/31 11:06:11;;;;;;;;;;;;;;;22.09;30.21;97679.31;5053338;28;1892;-79
2022/08/31 11:08:48;;;;;;;;;;;;;;;22.10;30.66;97681.69;5095134;28;951;-81
2022/08/31 11:11:34;;;;;;;;;;;;;;;22.19;30.03;97681.00;5114614;28;1983;-80
2022/08/31 11:14:13;;;;;;;;;;;;;;;22.29;30.08;97660.00;5110008;28;1549;-80
2022/08/31 11:16:48;;;;;;;;;;;;;;;22.14;30.45;97661.75;5054810;28;983;-80
2022/08/31 11:19:32;;;;;;;;;;;;;;;22.32;30.00;97661.13;5074011;28;928;-80
2022/08/31 11:22:01;;;;;;;;;;;;;;;22.23;30.24;97659.00;5093688;28;1592;-80
2022/08/31 11:24:32;;;;;;;;;;;;;;;22.20;30.20;97659.91;5059657;28;1711;-80
2022/08/31 11:27:00;;;;;;;;;;;;;;;22.36;29.93;97656.91;5094352;28;992;-81
2022/08/31 11:29:42;;;;;;;;;;;;;;;22.30;30.10;97658.75;5075742;28;1973;-80
2022/08/31 11:32:10;;;;;;;;;;;;;;;22.27;30.10;97654.00;5094882;28;1002;-81
2022/08/31 11:34:46;;;;;;;;;;;;;;;22.18;30.19;97641.81;5093594;28;1586;-81
2022/08/31 11:37:12;;;;;;;;;;;;;;;22.17;30.31;97643.03;5073838;28;1014;-80
2022/08/31 11:39:39;;;;;;;;;;;;;;;22.11;30.43;97628.66;5056420;28;1489;-81
2022/08/31 11:42:22;;;;;;;;;;;;;;;22.05;30.45;97633.28;5056117;28;979;-81
2022/08/31 11:45:06;;;;;;;;;;;;;;;22.11;30.46;97640.00;5052730;28;1578;-80
2022/08/31 11:47:33;;;;;;;;;;;;;;;22.17;30.48;97637.38;5037318;28;979;-81
2022/08/31 11:50:03;;;;;;;;;;;;;;;22.14;30.32;97638.28;5068417;28;1914;-80
2022/08/31 11:52:30;;;;;;;;;;;;;;;22.17;30.14;97643.03;5090285;28;1633;-80
2022/08/31 11:55:01;;;;;;;;;;;;;;;22.25;30.32;97633.84;5073733;28;1290;-81
2022/08/31 11:57:31;;;;;;;;;;;;;;;22.36;30.17;97639.91;5090508;28;1034;-81
2022/08/31 11:59:56;;;;;;;;;;;;;;;22.20;30.13;97642.13;5089456;28;1534;-81
2022/08/31 12:02:21;;;;;;;;;;;;;;;22.33;30.13;97634.38;5073858;28;933;-80
2022/08/31 12:05:02;;;;;;;;;;;;;;;22.18;30.44;97642.59;5074025;28;968;-81
2022/08/31 12:07:34;;;;;;;;;;;;;;;22.29;30.32;97628.84;5074182;28;923;-81
2022/08/31 12:10:18;;;;;;;;;;;;;;;22.46;29.93;97632.28;5072976;28;1902;-82
2022/08/31 12:13:06;;;;;;;;;;;;;;;22.30;30.01;97636.09;5057058;28;1220;-81
2022/08/31 12:15:40;;;;;;;;;;;;;;;22.39;30.24;97621.22;5111448;28;922;-81
2022/08/31 12:18:07;;;;;;;;;;;;;;;22.22;30.26;97625.44;5149722;27;891;-81
2022/08/31 12:20:32;;;;;;;;;;;;;;;22.25;30.17;97633.84;5115898;28;1354;-81
2022/08/31 12:25:51;;;;;;;;;;;;;;;22.11;30.67;97622.97;5115664;28;872;-80
2022/08/31 12:28:26;;;;;;;;;;;;;;;22.29;30.39;97634.50;5118687;28;900;-81
2022/08/31 12:30:53;;;;;;;;;;;;;;;22.32;30.38;97625.06;5119241;28;1906;-80
2022/08/31 12:33:22;;;;;;;;;;;;;;;22.24;30.32;97626.59;5120503;28;1158;-81
2022/08/31 12:35:51;;;;;;;;;;;;;;;22.14;30.13;97616.41;5119552;28;885;-81
2022/08/31 12:38:20;;;;;;;;;;;;;;;22.26;30.31;97626.91;5119154;28;890;-81
2022/08/31 12:40:46;;;;;;;;;;;;;;;22.43;30.16;97612.56;5108324;28;1505;-81
2022/08/31 12:43:13;;;;;;;;;;;;;;;22.29;30.49;97611.03;5132740;27;1483;-81
2022/08/31 12:45:53;;;;;;;;;;;;;;;22.36;30.36;97605.91;5097227;28;937;-81
2022/08/31 12:48:22;;;;;;;;;;;;;;;22.29;30.43;97617.50;5097622;28;969;-81
2022/08/31 12:50:51;;;;;;;;;;;;;;;22.35;30.06;97615.66;5096863;28;1914;-81
2022/08/31 12:53:54;;;;;;;;;;;;;;;22.27;30.23;97619.97;5114699;28;985;-81
2022/08/31 12:56:28;;;;;;;;;;;;;;;22.49;29.80;97614.38;5057384;28;900;-81
2022/08/31 12:59:00;;;;;;;;;;;;;;;22.45;29.97;97610.06;5057001;28;931;-81
2022/08/31 13:01:25;;;;;;;;;;;;;;;22.34;30.08;97614.06;5070961;28;1434;-81
2022/08/31 13:03:55;;;;;;;;;;;;;;;22.27;30.35;97613.53;5036594;28;911;-81
2022/08/31 13:06:25;;;;;;;;;;;;;;;22.20;30.25;97602.44;5036871;28;988;-81
2022/08/31 13:08:50;;;;;;;;;;;;;;;22.15;30.32;97601.00;5020345;28;976;-81
2022/08/31 13:11:25;;;;;;;;;;;;;;;22.33;30.21;97595.50;5035977;28;1902;-80
2022/08/31 13:14:05;;;;;;;;;;;;;;;22.47;29.95;97593.38;5036150;28;1310;-80
2022/08/31 13:16:30;;;;;;;;;;;;;;;22.33;29.99;97589.81;5027250;28;1569;-81
2022/08/31 13:18:59;;;;;;;;;;;;;;;22.50;29.80;97595.31;5016884;28;1056;-81
2022/08/31 13:21:30;;;;;;;;;;;;;;;22.49;29.86;97579.56;5017024;28;1084;-81
2022/08/31 13:24:02;;;;;;;;;;;;;;;22.30;30.12;97579.41;5017150;28;977;-81
2022/08/31 13:26:28;;;;;;;;;;;;;;;22.23;30.25;97574.00;5015958;28;1520;-81
2022/08/31 13:28:57;;;;;;;;;;;;;;;22.26;29.94;97567.38;4997064;28;1102;-81
2022/08/31 13:31:24;;;;;;;;;;;;;;;22.45;29.66;97567.53;4980713;28;2020;-81